Terminal Aerodrome Forecast
Issued by NWS

Home | Current Version | Previous Version | Text Only | Print | Product List | Glossary On
Versions: 1 2 3 4 5 6 7 8 9 10 11 12 13 14 15 16 17 18 19 20 21 22 23 24 25
000
FTUS41 KBTV 021720
TAFPBG
TAF
KPBG 021720Z 0218/0318 13007KT P6SM SCT250
     FM022300 VRB02KT P6SM SCT250
     FM030600 VRB03KT P6SM VCSH BKN040 BKN250
     FM030900 VRB03KT P6SM VCSH BKN020
     FM031400 01007KT P6SM SCT040=

USA.gov is the U.S. government's official web portal to all federal, state and local government web resources and services.